Peculiar, Missouri
Current Conditions -  °F | °C
As of 6:53 PM on Sunday 21 Dec 2014 (Local Time) from KOJC Reporting Station
Haze Haze  
Wind Chill: 36°   Ceiling: 2000
Heat Index: 43°   Visibility: 6mi
Dew Point: 42°   Wind: 13mph
Humidity: 97%   Direction: 150°SSE
Pressure: 29.79"   Gusts: NA
Location:  38.72°N, 94.46°W
Report Text: KOJC 220053Z 15011KT 6SM BR SCT007 OVC020 06/06 A2979 RMK AO2 SLP094 T00610056
Loading
Personal Weather Stations






























Interactive Weather Map New forecast layout! Learn more

10-Day Weather Forecast

Advertisements
Track Severe Weather on mobile